Airfield :
LOGIN :

Register | Disclaimer

   EN    FR    IT 

 










Legend :    VFR   Marginal VFR   IFR   Intensive IFR   Very Intensive IFR
Visi :
Ceiling :
>= 8 km
>= 3000ft
5 to 8 km
1000 to 3000 ft
1500m to 5 km
500 to 1000 ft
800 to 1500m
200 to 500 ft
< 800m
< 200 ft
Symbols :   Thunderstorms  Fog  Heavy snow  Heavy precipitations  Wind > 20 kt
SIGMETs :     Misc.  Thunderstorms  Icing  Turbulence  Mountain Waves  Volcanic Ashes






- Airport Elevation : 74 ft
- IATA code : LRH


LFBH - La Rochelle Ile de Ré

CURRENT METAR :
  • 251930Z AUTO 10003KT CAVOK 15/10 Q1017 NOSIG

EXPIRED METARs :
  • 251900Z AUTO 10004KT CAVOK 15/10 Q1017 NOSIG
  • 251830Z AUTO 09003KT CAVOK 16/11 Q1017 NOSIG
  • 251800Z AUTO 08004KT CAVOK 16/10 Q1016 NOSIG
  • 251730Z AUTO 09004KT 9999 FEW040 SCT049 BKN058 18/11 Q1016 NOSIG
  • 251700Z AUTO 05006KT 350V080 9999 SCT042 BKN050 OVC082 18/11 Q1016 NOSIG

TAF TAF LFBH
Valid from the 25 at 18:00 until the 26 at 18:00 UTC


251700Z 2518/2618 36006KT 9999 SCT035
BECMG 2610/2612 27010G23KT
TEMPO 2612/2618 27015G28KT RA BKN030
ATIS : +33 5 46 00 13 92



MET'MAP, your aeronautical weather chart ! - Copyright ORBIFLY December 2007 - Disclaimer

ORBIFLY MET'MAP TEAM :

Programming & Development : Alexandra Zaïnal
Original concept : Baudouin d'Aumeries
Technical & hardware support : Manuel Goepfert
Assistance : Marc-Olivier Méhu




SOURCES & CREDITS :

   NOAA